Pembroke, Virginia
Current Conditions -  °F | °C
As of 3:35 PM on Monday 22 Dec 2014 (Local Time) from KPSK Reporting Station
Haze Haze  
Wind Chill: 30°   Ceiling: 500
Heat Index: 36°   Visibility: 1.5mi
Dew Point: 36°   Wind: 7mph
Humidity: 100%   Direction: 80°E
Pressure: 30.04"   Gusts: NA
Location:  37.32°N, 80.64°W
Report Text: KPSK 222035Z AUTO 08006KT 1 1/2SM BR OVC005 02/02 A3004 RMK AO2 T00210021
Loading
Personal Weather Stations






























Interactive Weather Map New forecast layout! Learn more

10-Day Weather Forecast

Advertisements
Track Severe Weather on mobile